createdAt,value
2023-01-25T00:01:31.607Z,103452.13
2023-01-25T00:03:59.704Z,103452.25
2023-01-25T00:06:26.055Z,103446.06
2023-01-25T00:08:52.405Z,103446.91
2023-01-25T00:11:18.767Z,103438.19
2023-01-25T00:13:45.334Z,103442.44
2023-01-25T00:16:11.890Z,103438.06
2023-01-25T00:18:38.220Z,103436.38
2023-01-25T00:21:13.300Z,103438.25
2023-01-25T00:23:39.637Z,103445.31
2023-01-25T00:26:05.994Z,103443.59
2023-01-25T00:28:32.537Z,103437.69
2023-01-25T00:30:59.181Z,103436.69
2023-01-25T00:33:33.263Z,103445.34
2023-01-25T00:36:00.884Z,103441.81
2023-01-25T00:38:30.157Z,103437.66
2023-01-25T00:40:57.601Z,103427.25
2023-01-25T00:43:23.913Z,103434.28
2023-01-25T00:45:50.392Z,103434.22
2023-01-25T00:48:16.751Z,103431.53
2023-01-25T00:50:43.139Z,103435.03
2023-01-25T00:53:09.520Z,103434.94
2023-01-25T00:55:37.187Z,103432.38
2023-01-25T00:58:03.515Z,103430.75
2023-01-25T01:00:29.851Z,103426.38
2023-01-25T01:02:56.144Z,103434.31
2023-01-25T01:05:22.421Z,103429.81
2023-01-25T01:07:49.285Z,103428.09
2023-01-25T01:10:15.756Z,103427.34
2023-01-25T01:12:43.404Z,103422.94
2023-01-25T01:15:10.045Z,103418.69
2023-01-25T01:17:36.436Z,103423.09
2023-01-25T01:20:02.913Z,103413.50
2023-01-25T01:22:29.356Z,103414.31
2023-01-25T01:24:55.653Z,103412.66
2023-01-25T01:27:21.993Z,103406.56
2023-01-25T01:29:49.880Z,103408.38
2023-01-25T01:32:16.321Z,103412.72
2023-01-25T01:34:42.676Z,103413.63
2023-01-25T01:37:08.990Z,103413.69
2023-01-25T01:39:35.335Z,103407.50
2023-01-25T01:42:01.658Z,103428.34
2023-01-25T01:44:43.692Z,103425.75
2023-01-25T01:47:13.786Z,103428.53
2023-01-25T01:49:40.104Z,103431.16
2023-01-25T01:52:08.113Z,103428.72
2023-01-25T01:54:36.204Z,103430.53
2023-01-25T01:57:05.177Z,103431.38
2023-01-25T01:59:33.581Z,103427.09
2023-01-25T02:01:59.958Z,103424.63
2023-01-25T02:04:28.308Z,103425.63
2023-01-25T02:06:57.543Z,103420.41
2023-01-25T02:09:25.946Z,103419.47
2023-01-25T02:11:52.735Z,103420.25
2023-01-25T02:14:19.641Z,103422.84
2023-01-25T02:16:46.269Z,103417.56
2023-01-25T02:19:17.166Z,103415.66
2023-01-25T02:21:45.897Z,103416.47
2023-01-25T02:24:14.245Z,103407.78
2023-01-25T02:26:42.054Z,103408.63
2023-01-25T02:29:08.861Z,103413.16
2023-01-25T02:31:35.324Z,103403.59
2023-01-25T02:34:01.772Z,103409.63
2023-01-25T02:36:29.291Z,103402.69
2023-01-25T02:38:57.560Z,103400.84
2023-01-25T02:41:30.862Z,103405.25
2023-01-25T02:43:58.759Z,103403.31
2023-01-25T02:46:27.273Z,103410.53
2023-01-25T02:48:54.330Z,103396.50
2023-01-25T02:51:21.585Z,103403.66
2023-01-25T02:53:47.939Z,103397.59
2023-01-25T02:56:14.276Z,103399.28
2023-01-25T02:58:40.597Z,103387.88
2023-01-25T03:01:08.808Z,103382.66
2023-01-25T03:03:35.209Z,103389.66
2023-01-25T03:06:01.578Z,103391.38
2023-01-25T03:08:27.958Z,103386.25
2023-01-25T03:10:56.486Z,103382.72
2023-01-25T03:13:22.808Z,103384.81
2023-01-25T03:15:49.197Z,103378.81
2023-01-25T03:18:16.964Z,103391.84
2023-01-25T03:20:43.295Z,103376.09
2023-01-25T03:23:09.609Z,103376.06
2023-01-25T03:25:35.921Z,103369.00
2023-01-25T03:28:02.253Z,103365.44
2023-01-25T03:30:28.563Z,103376.00
2023-01-25T03:32:54.859Z,103365.41
2023-01-25T03:35:22.694Z,103363.69
2023-01-25T03:37:49.204Z,103366.28
2023-01-25T03:40:15.760Z,103362.78
2023-01-25T03:42:42.139Z,103364.56
2023-01-25T03:45:09.137Z,103370.78
2023-01-25T03:47:35.703Z,103372.66
2023-01-25T03:50:02.043Z,103362.34
2023-01-25T03:52:29.775Z,103362.31
2023-01-25T03:54:56.184Z,103363.94
2023-01-25T03:57:22.582Z,103361.50
2023-01-25T03:59:48.913Z,103351.81
2023-01-25T04:02:15.654Z,103344.81
2023-01-25T04:04:41.992Z,103357.09
2023-01-25T04:07:08.347Z,103334.50
2023-01-25T04:09:36.041Z,103353.63
2023-01-25T04:12:02.417Z,103356.28
2023-01-25T04:14:43.715Z,103358.84
2023-01-25T04:17:10.949Z,103355.38
2023-01-25T04:19:37.263Z,103356.22
2023-01-25T04:22:03.579Z,103344.88
2023-01-25T04:24:29.884Z,103345.78
2023-01-25T04:26:57.765Z,103342.34
2023-01-25T04:29:35.507Z,103341.47
2023-01-25T04:32:06.741Z,103342.34
2023-01-25T04:34:33.102Z,103332.72
2023-01-25T04:36:59.439Z,103333.63
2023-01-25T04:39:25.802Z,103331.88
2023-01-25T04:41:52.134Z,103331.84
2023-01-25T04:44:19.814Z,103331.84
2023-01-25T04:46:46.134Z,103315.22
2023-01-25T04:49:12.455Z,103323.13
2023-01-25T04:51:38.788Z,103317.91
2023-01-25T04:54:05.163Z,103313.53
2023-01-25T04:56:31.467Z,103305.69
2023-01-25T04:58:57.789Z,103310.03
2023-01-25T05:01:25.458Z,103306.47
2023-01-25T05:03:51.842Z,103303.84
2023-01-25T05:06:18.124Z,103308.97
2023-01-25T05:08:44.439Z,103298.50
2023-01-25T05:11:10.736Z,103294.97
2023-01-25T05:13:37.539Z,103296.69
2023-01-25T05:16:04.100Z,103299.28
2023-01-25T05:18:47.108Z,103290.53
2023-01-25T05:21:14.568Z,103294.81
2023-01-25T05:23:40.886Z,103294.81
2023-01-25T05:26:08.077Z,103295.66
2023-01-25T05:28:34.404Z,103288.78
2023-01-25T05:31:03.130Z,103294.91
2023-01-25T05:33:29.468Z,103298.38
2023-01-25T05:35:57.212Z,103305.28
2023-01-25T05:38:23.540Z,103304.50
2023-01-25T05:40:49.862Z,103305.34
2023-01-25T05:43:16.224Z,103307.13
2023-01-25T05:45:42.623Z,103302.88
2023-01-25T05:48:08.963Z,103307.25
2023-01-25T05:50:35.340Z,103295.13
2023-01-25T05:53:03.012Z,103288.19
2023-01-25T05:55:29.378Z,103291.75
2023-01-25T05:57:55.841Z,103288.31
2023-01-25T06:00:22.735Z,103285.78
2023-01-25T06:02:49.103Z,103280.44
2023-01-25T06:05:15.493Z,103290.88
2023-01-25T06:07:41.859Z,103289.16
2023-01-25T06:10:10.902Z,103288.38
2023-01-25T06:12:37.208Z,103285.81
2023-01-25T06:15:03.687Z,103289.31
2023-01-25T06:17:30.001Z,103281.53
2023-01-25T06:19:56.337Z,103280.69
2023-01-25T06:22:22.675Z,103284.09
2023-01-25T06:24:48.950Z,103286.72
2023-01-25T06:27:16.641Z,103279.88
2023-01-25T06:29:42.947Z,103279.03
2023-01-25T06:32:09.326Z,103281.56
2023-01-25T06:34:35.707Z,103274.53
2023-01-25T06:37:02.020Z,103280.63
2023-01-25T06:39:28.335Z,103282.34
2023-01-25T06:41:54.645Z,103275.38
2023-01-25T06:44:22.290Z,103277.09
2023-01-25T06:46:48.603Z,103276.28
2023-01-25T06:49:15.024Z,103278.19
2023-01-25T06:51:41.337Z,103277.25
2023-01-25T06:54:07.674Z,103281.66
2023-01-25T06:56:34.091Z,103284.47
2023-01-25T06:59:00.491Z,103287.06
2023-01-25T07:01:28.403Z,103291.47
2023-01-25T07:03:55.824Z,103284.41
2023-01-25T07:06:22.385Z,103280.25
2023-01-25T07:08:48.742Z,103278.66
2023-01-25T07:11:15.520Z,103275.09
2023-01-25T07:13:43.079Z,103273.34
2023-01-25T07:16:11.488Z,103277.63
2023-01-25T07:18:39.251Z,103276.50
2023-01-25T07:21:06.577Z,103277.56
2023-01-25T07:23:33.585Z,103272.41
2023-01-25T07:26:00.374Z,103282.09
2023-01-25T07:28:27.061Z,103270.56
2023-01-25T07:30:53.509Z,103279.97
2023-01-25T07:33:20.030Z,103271.41
2023-01-25T07:35:47.811Z,103271.38
2023-01-25T07:38:14.890Z,103270.75
2023-01-25T07:40:41.285Z,103283.81
2023-01-25T07:43:07.621Z,103279.75
2023-01-25T07:45:33.948Z,103275.22
2023-01-25T07:48:00.319Z,103271.72
2023-01-25T07:50:27.432Z,103260.66
2023-01-25T07:52:55.159Z,103261.75
2023-01-25T07:55:21.932Z,103267.03
2023-01-25T07:57:48.245Z,103267.75
2023-01-25T08:00:14.772Z,103268.63
2023-01-25T08:02:41.186Z,103265.13
2023-01-25T08:05:08.238Z,103274.72
2023-01-25T08:07:34.753Z,103267.72
2023-01-25T08:10:02.438Z,103266.88
2023-01-25T08:12:28.787Z,103272.09
2023-01-25T08:14:55.167Z,103264.22
2023-01-25T08:17:21.478Z,103278.03
2023-01-25T08:19:47.801Z,103278.84
2023-01-25T08:22:14.158Z,103268.38
2023-01-25T08:24:40.579Z,103265.69
2023-01-25T08:27:08.340Z,103263.00
2023-01-25T08:29:34.743Z,103260.34
2023-01-25T08:32:01.202Z,103256.75
2023-01-25T08:34:27.539Z,103245.38
2023-01-25T08:36:53.868Z,103250.75
2023-01-25T08:39:20.193Z,103257.72
2023-01-25T08:41:46.515Z,103255.13
2023-01-25T08:44:14.236Z,103255.09
2023-01-25T08:46:40.684Z,103246.25
2023-01-25T08:49:07.095Z,103245.38
2023-01-25T08:51:33.642Z,103241.88
2023-01-25T08:54:01.919Z,103236.66
2023-01-25T08:56:28.260Z,103240.97
2023-01-25T08:58:54.607Z,103238.34
2023-01-25T09:01:22.384Z,103247.06
2023-01-25T09:03:49.935Z,103239.25
2023-01-25T09:06:16.933Z,103235.81
2023-01-25T09:08:43.674Z,103236.66
2023-01-25T09:11:11.310Z,103235.69
2023-01-25T09:13:37.917Z,103232.28
2023-01-25T09:16:05.465Z,103233.88
2023-01-25T09:18:33.963Z,103234.69
2023-01-25T09:21:00.510Z,103228.59
2023-01-25T09:23:26.794Z,103230.41
2023-01-25T09:25:56.437Z,103231.34
2023-01-25T09:28:22.768Z,103221.72
2023-01-25T09:31:14.582Z,103215.75
2023-01-25T09:33:44.052Z,103211.19
2023-01-25T09:36:10.747Z,103216.41
2023-01-25T09:38:37.071Z,103223.41
2023-01-25T09:41:12.351Z,103218.19
2023-01-25T09:43:50.086Z,103214.75
2023-01-25T09:46:20.496Z,103218.19
2023-01-25T09:49:06.778Z,103220.03
2023-01-25T09:51:42.254Z,103226.00
2023-01-25T09:54:09.625Z,103232.19
2023-01-25T09:56:37.749Z,103225.34
2023-01-25T09:59:05.853Z,103223.59
2023-01-25T10:01:39.344Z,103219.25
2023-01-25T10:04:11.618Z,103215.72
2023-01-25T10:06:40.624Z,103219.09
2023-01-25T10:09:17.741Z,103213.91
2023-01-25T10:11:45.420Z,103212.16
2023-01-25T10:14:14.067Z,103215.56
2023-01-25T10:16:44.359Z,103213.03
2023-01-25T10:19:17.582Z,103211.31
2023-01-25T10:21:45.549Z,103215.47
2023-01-25T10:24:30.672Z,103210.09
2023-01-25T10:26:57.714Z,103200.81
2023-01-25T10:29:26.882Z,103200.97
2023-01-25T10:31:54.122Z,103201.91
2023-01-25T10:34:23.901Z,103206.34
2023-01-25T10:36:54.046Z,103187.94
2023-01-25T10:39:20.977Z,103183.66
2023-01-25T10:41:49.037Z,103182.06
2023-01-25T10:44:15.531Z,103175.66
2023-01-25T10:46:44.130Z,103170.44
2023-01-25T10:49:19.304Z,103168.00
2023-01-25T10:51:47.229Z,103170.69
2023-01-25T10:54:14.579Z,103159.50
2023-01-25T10:56:41.605Z,103154.47
2023-01-25T10:59:15.123Z,103142.22
2023-01-25T11:01:41.886Z,103140.47
2023-01-25T11:04:22.090Z,103138.78
2023-01-25T11:06:50.184Z,103136.13
2023-01-25T11:09:30.137Z,103131.66
2023-01-25T11:11:57.404Z,103128.84
2023-01-25T11:14:25.137Z,103119.50
2023-01-25T11:16:51.442Z,103111.63
2023-01-25T11:19:26.341Z,103114.09
2023-01-25T11:21:54.521Z,103105.50
2023-01-25T11:24:21.091Z,103102.13
2023-01-25T11:26:47.449Z,103099.50
2023-01-25T11:29:15.583Z,103095.06
2023-01-25T11:31:43.115Z,103087.28
2023-01-25T11:34:10.522Z,103074.28
2023-01-25T11:36:42.159Z,103069.88
2023-01-25T11:39:16.924Z,103070.13
2023-01-25T11:41:52.395Z,103063.94
2023-01-25T11:44:40.172Z,103060.53
2023-01-25T11:47:12.169Z,103060.28
2023-01-25T11:49:45.458Z,103049.97
2023-01-25T11:52:19.895Z,103041.25
2023-01-25T11:54:52.280Z,103034.13
2023-01-25T11:57:33.473Z,103040.13
2023-01-25T12:00:10.625Z,103027.81
2023-01-25T12:02:55.747Z,103019.03
2023-01-25T12:05:27.561Z,103002.31
2023-01-25T12:08:00.045Z,103002.56
2023-01-25T12:10:35.160Z,102998.09
2023-01-25T12:13:05.246Z,102989.28
2023-01-25T12:15:41.999Z,102976.06
2023-01-25T12:18:19.574Z,102977.88
2023-01-25T12:21:00.965Z,102970.97
2023-01-25T12:23:33.573Z,102960.47
2023-01-25T12:26:10.481Z,102957.09
2023-01-25T12:28:39.582Z,102946.78
2023-01-25T12:31:11.254Z,102938.09
2023-01-25T12:33:39.839Z,102938.28
2023-01-25T12:36:09.227Z,102927.66
2023-01-25T12:38:40.011Z,102919.84
2023-01-25T12:41:11.811Z,102906.75
2023-01-25T12:43:40.500Z,102900.50
2023-01-25T12:46:10.678Z,102904.72
2023-01-25T12:48:40.219Z,102902.25
2023-01-25T12:51:06.583Z,102892.56
2023-01-25T12:53:35.700Z,102894.28
2023-01-25T12:56:04.467Z,102888.13
2023-01-25T12:58:38.115Z,102877.66
2023-01-25T13:01:10.378Z,102872.44
2023-01-25T13:03:39.129Z,102875.25
2023-01-25T13:06:09.629Z,102872.69
2023-01-25T13:08:42.242Z,102865.88
2023-01-25T13:11:13.366Z,102859.56
2023-01-25T13:13:41.125Z,102852.47
2023-01-25T13:16:23.358Z,102851.47
2023-01-25T13:18:49.779Z,102845.28
2023-01-25T13:21:31.058Z,102846.97
2023-01-25T13:24:11.104Z,102840.84
2023-01-25T13:26:38.648Z,102840.84
2023-01-25T13:29:27.295Z,102848.81
2023-01-25T13:31:53.932Z,102839.25
2023-01-25T13:34:35.186Z,102834.72
2023-01-25T13:37:01.580Z,102830.44
2023-01-25T13:39:41.839Z,102831.41
2023-01-25T13:42:18.105Z,102829.97
2023-01-25T13:44:47.399Z,102827.59
2023-01-25T13:47:15.401Z,102830.34
2023-01-25T13:49:44.814Z,102826.81
2023-01-25T13:52:14.456Z,102819.88
2023-01-25T13:54:42.934Z,102811.06
2023-01-25T13:57:13.497Z,102813.53
2023-01-25T13:59:40.771Z,102816.94
2023-01-25T14:02:15.885Z,102819.56
2023-01-25T14:04:44.002Z,102807.34
2023-01-25T14:07:15.571Z,102801.13
2023-01-25T14:09:43.113Z,102793.44
2023-01-25T14:12:10.420Z,102793.25
2023-01-25T14:14:37.052Z,102788.88
2023-01-25T14:19:35.866Z,102777.50
2023-01-25T14:22:20.257Z,102788.00
2023-01-25T14:24:59.251Z,102779.28
2023-01-25T14:27:25.575Z,102786.19
2023-01-25T14:29:51.911Z,102781.06
2023-01-25T14:32:20.405Z,102789.84
2023-01-25T14:34:48.180Z,102789.94
2023-01-25T14:37:16.017Z,102789.91
2023-01-25T14:39:42.337Z,102789.13
2023-01-25T14:42:08.875Z,102792.81
2023-01-25T14:44:35.354Z,102790.06
2023-01-25T14:47:20.474Z,102785.66
2023-01-25T14:49:48.139Z,102780.50
2023-01-25T14:52:16.457Z,102776.22
2023-01-25T14:54:45.707Z,102772.63
2023-01-25T14:57:30.823Z,102780.50
2023-01-25T14:59:57.376Z,102772.75
2023-01-25T15:02:25.949Z,102774.38
2023-01-25T15:04:59.191Z,102765.19
2023-01-25T15:07:50.692Z,102770.31
2023-01-25T15:10:18.741Z,102765.97
2023-01-25T15:12:58.493Z,102771.28
2023-01-25T15:15:31.389Z,102760.88
2023-01-25T15:17:57.738Z,102757.44
2023-01-25T15:20:29.276Z,102753.09
2023-01-25T15:22:55.909Z,102755.66
2023-01-25T15:25:24.299Z,102761.00
2023-01-25T15:27:51.285Z,102750.75
2023-01-25T15:30:18.457Z,102742.09
2023-01-25T15:32:45.232Z,102749.94
2023-01-25T15:35:12.610Z,102741.22
2023-01-25T15:37:40.275Z,102739.63
2023-01-25T15:40:07.570Z,102731.75
2023-01-25T15:42:34.033Z,102734.97
2023-01-25T15:45:00.370Z,102728.47
2023-01-25T15:47:26.783Z,102733.09
2023-01-25T15:49:53.096Z,102721.19
2023-01-25T15:52:19.422Z,102735.94
2023-01-25T15:54:55.950Z,102733.44
2023-01-25T15:57:28.806Z,102732.63
2023-01-25T15:59:55.867Z,102729.25
2023-01-25T16:02:22.220Z,102729.91
2023-01-25T16:04:48.633Z,102739.44
2023-01-25T16:07:19.390Z,102731.41
2023-01-25T16:09:49.838Z,102729.00
2023-01-25T16:12:16.179Z,102727.84
2023-01-25T16:14:42.501Z,102718.50
2023-01-25T16:17:15.829Z,102729.72
2023-01-25T16:19:42.126Z,102727.53
2023-01-25T16:22:08.439Z,102730.00
2023-01-25T16:24:34.743Z,102718.81
2023-01-25T16:27:02.406Z,102722.53
2023-01-25T16:29:28.778Z,102713.75
2023-01-25T16:31:55.334Z,102707.56
2023-01-25T16:34:21.777Z,102714.50
2023-01-25T16:36:48.186Z,102710.16
2023-01-25T16:39:15.739Z,102708.34
2023-01-25T16:41:42.089Z,102710.16
2023-01-25T16:44:09.753Z,102720.63
2023-01-25T16:46:36.283Z,102720.03
2023-01-25T16:49:02.590Z,102719.19
2023-01-25T16:51:28.916Z,102715.78
2023-01-25T16:53:56.556Z,102717.50
2023-01-25T16:56:23.748Z,102713.16
2023-01-25T16:58:50.982Z,102716.03
2023-01-25T17:01:19.451Z,102727.75
2023-01-25T17:03:46.475Z,102720.03
2023-01-25T17:06:16.659Z,102715.09
2023-01-25T17:08:43.207Z,102723.81
2023-01-25T17:11:09.733Z,102719.25
2023-01-25T17:13:36.145Z,102730.50
2023-01-25T17:16:02.511Z,102734.47
2023-01-25T17:18:30.308Z,102722.09
2023-01-25T17:20:57.486Z,102725.25
2023-01-25T17:23:23.869Z,102723.91
2023-01-25T17:25:50.232Z,102718.06
2023-01-25T17:28:16.529Z,102724.34
2023-01-25T17:30:42.921Z,102722.34
2023-01-25T17:33:09.303Z,102719.81
2023-01-25T17:35:36.966Z,102720.06
2023-01-25T17:38:03.297Z,102702.31
2023-01-25T17:40:29.622Z,102709.75
2023-01-25T17:42:55.947Z,102698.84
2023-01-25T17:45:22.239Z,102701.88
2023-01-25T17:47:48.535Z,102693.38
2023-01-25T17:50:15.016Z,102676.88
2023-01-25T17:52:42.680Z,102670.75
2023-01-25T17:55:09.130Z,102673.34
2023-01-25T17:57:35.488Z,102671.81
2023-01-25T18:00:02.048Z,102662.16
2023-01-25T18:02:28.571Z,102658.66
2023-01-25T18:04:54.892Z,102648.34
2023-01-25T18:07:21.197Z,102637.06
2023-01-25T18:09:48.937Z,102637.78
2023-01-25T18:12:15.330Z,102629.06
2023-01-25T18:14:41.652Z,102616.03
2023-01-25T18:17:07.981Z,102605.50
2023-01-25T18:19:34.297Z,102607.22
2023-01-25T18:22:00.627Z,102603.69
2023-01-25T18:24:29.795Z,102610.63
2023-01-25T18:27:01.363Z,102603.66
2023-01-25T18:29:42.563Z,102585.28
2023-01-25T18:32:09.007Z,102583.50
2023-01-25T18:34:35.394Z,102574.88
2023-01-25T18:37:01.688Z,102585.22
2023-01-25T18:39:28.057Z,102570.56
2023-01-25T18:41:54.507Z,102569.81
2023-01-25T18:44:22.168Z,102558.38
2023-01-25T18:46:48.480Z,102562.81
2023-01-25T18:49:14.831Z,102571.53
2023-01-25T18:51:59.499Z,102549.81
2023-01-25T18:54:27.439Z,102529.75
2023-01-25T18:56:53.786Z,102539.31
2023-01-25T18:59:20.085Z,102527.06
2023-01-25T19:01:47.851Z,102540.03
2023-01-25T19:04:14.199Z,102540.88
2023-01-25T19:06:40.529Z,102535.03
2023-01-25T19:09:06.849Z,102553.53
2023-01-25T19:11:33.157Z,102550.13
2023-01-25T19:13:59.444Z,102553.72
2023-01-25T19:16:25.858Z,102556.00
2023-01-25T19:18:54.433Z,102548.44
2023-01-25T19:21:21.742Z,102547.66
2023-01-25T19:23:48.081Z,102540.91
2023-01-25T19:26:15.231Z,102537.31
2023-01-25T19:28:42.205Z,102529.34
2023-01-25T19:31:09.512Z,102527.66
2023-01-25T19:33:36.699Z,102518.88
2023-01-25T19:36:05.306Z,102527.59
2023-01-25T19:38:32.132Z,102532.72
2023-01-25T19:41:02.991Z,102532.75
2023-01-25T19:43:29.310Z,102531.94
2023-01-25T19:46:05.608Z,102518.03
2023-01-25T19:48:33.178Z,102525.84
2023-01-25T19:51:07.009Z,102524.06
2023-01-25T19:53:33.316Z,102507.66
2023-01-25T19:56:00.943Z,102493.75
2023-01-25T19:58:27.259Z,102495.44
2023-01-25T20:00:53.581Z,102492.09
2023-01-25T20:03:19.951Z,102480.84
2023-01-25T20:05:46.284Z,102491.16
2023-01-25T20:08:14.000Z,102488.53
2023-01-25T20:10:40.302Z,102477.31
2023-01-25T20:13:08.476Z,102487.72
2023-01-25T20:15:34.844Z,102474.84
2023-01-25T20:18:01.139Z,102481.84
2023-01-25T20:20:27.449Z,102478.91
2023-01-25T20:22:53.741Z,102476.16
2023-01-25T20:25:21.483Z,102479.91
2023-01-25T20:27:47.792Z,102474.59
2023-01-25T20:30:14.262Z,102480.59
2023-01-25T20:32:40.597Z,102484.34
2023-01-25T20:35:07.215Z,102476.16
2023-01-25T20:37:33.524Z,102484.31
2023-01-25T20:39:59.801Z,102482.75
2023-01-25T20:42:27.458Z,102487.25
2023-01-25T20:44:53.783Z,102482.00
2023-01-25T20:47:20.075Z,102477.81
2023-01-25T20:49:46.360Z,102482.06
2023-01-25T20:52:12.685Z,102482.97
2023-01-25T20:54:39.008Z,102492.28
2023-01-25T20:57:05.323Z,102473.47
2023-01-25T20:59:33.120Z,102468.78
2023-01-25T21:01:59.481Z,102464.59
2023-01-25T21:04:25.837Z,102475.09
2023-01-25T21:06:52.176Z,102471.84
2023-01-25T21:09:18.451Z,102470.88
2023-01-25T21:11:44.757Z,102474.41
2023-01-25T21:14:11.104Z,102473.56
2023-01-25T21:16:38.873Z,102465.16
2023-01-25T21:19:06.027Z,102465.31
2023-01-25T21:21:32.882Z,102462.72
2023-01-25T21:23:59.857Z,102466.97
2023-01-25T21:26:27.305Z,102457.28
2023-01-25T21:28:54.209Z,102442.34
2023-01-25T21:31:21.029Z,102445.81
2023-01-25T21:33:48.861Z,102450.13
2023-01-25T21:36:15.856Z,102440.56
2023-01-25T21:38:42.719Z,102443.22
2023-01-25T21:41:10.797Z,102432.69
2023-01-25T21:43:37.482Z,102436.88
2023-01-25T21:46:03.893Z,102429.72
2023-01-25T21:48:30.182Z,102427.91
2023-01-25T21:50:59.179Z,102417.38
2023-01-25T21:53:25.499Z,102411.34
2023-01-25T21:55:54.809Z,102399.09
2023-01-25T21:58:21.131Z,102405.25
2023-01-25T22:00:47.426Z,102392.25
2023-01-25T22:03:13.746Z,102405.16
2023-01-25T22:05:40.050Z,102404.31
2023-01-25T22:08:07.751Z,102406.09
2023-01-25T22:10:34.242Z,102406.19
2023-01-25T22:13:00.561Z,102399.25
2023-01-25T22:15:26.964Z,102384.38
2023-01-25T22:17:53.296Z,102390.47
2023-01-25T22:20:19.608Z,102401.78
2023-01-25T22:22:45.891Z,102401.78
2023-01-25T22:25:13.618Z,102408.75
2023-01-25T22:27:44.598Z,102402.72
2023-01-25T22:30:11.772Z,102403.66
2023-01-25T22:32:38.258Z,102388.97
2023-01-25T22:35:04.845Z,102382.88
2023-01-25T22:37:33.873Z,102379.41
2023-01-25T22:40:00.273Z,102374.97
2023-01-25T22:42:27.943Z,102371.47
2023-01-25T22:44:54.266Z,102372.31
2023-01-25T22:47:20.574Z,102370.59
2023-01-25T22:49:46.889Z,102361.03
2023-01-25T22:52:13.247Z,102356.78
2023-01-25T22:54:39.601Z,102360.13
2023-01-25T22:57:05.925Z,102362.75
2023-01-25T22:59:33.560Z,102364.47
2023-01-25T23:01:59.884Z,102356.69
2023-01-25T23:04:26.334Z,102358.44
2023-01-25T23:06:52.660Z,102359.16
2023-01-25T23:09:18.980Z,102356.63
2023-01-25T23:11:45.299Z,102357.53
2023-01-25T23:14:11.956Z,102352.31
2023-01-25T23:16:39.609Z,102361.81
2023-01-25T23:19:05.948Z,102354.03
2023-01-25T23:21:32.373Z,102354.03
2023-01-25T23:23:59.578Z,102356.63
2023-01-25T23:26:25.971Z,102342.81
2023-01-25T23:28:52.996Z,102344.50
2023-01-25T23:31:20.679Z,102351.47
2023-01-25T23:33:49.091Z,102348.03
2023-01-25T23:36:16.362Z,102349.75
2023-01-25T23:38:43.019Z,102350.59
2023-01-25T23:41:09.444Z,102341.03
2023-01-25T23:43:36.057Z,102341.03
2023-01-25T23:46:02.597Z,102341.03
2023-01-25T23:48:28.907Z,102336.72
2023-01-25T23:50:56.917Z,102336.66
2023-01-25T23:53:23.758Z,102328.00
2023-01-25T23:55:52.884Z,102317.47
2023-01-25T23:58:19.278Z,102320.94
